Time;durP1;ratioP1;P1;durP2;ratioP2;P2;SDS_P1;SDS_P2;PMS_P1;PMS_P2;Temp;Humidity;BMP_temperature;BMP_pressure;BME280_temperature;BME280_humidity;BME280_pressure;Samples;Min_cycle;Max_cycle;Signal;HPM_P1;HPM_P2
2022/06/15 00:01:19;;;;;;;5.80;2.30;;;14.10;99.90;;;;;;5021256;28;20215;-73
2022/06/15 00:04:03;;;;;;;3.90;2.30;;;14.10;99.90;;;;;;5014490;28;20238;-74
2022/06/15 00:06:48;;;;;;;7.60;2.47;;;14.00;99.90;;;;;;5007743;28;20185;-74
2022/06/15 00:09:32;;;;;;;6.10;2.30;;;14.00;99.90;;;;;;5007120;28;20223;-72
2022/06/15 00:12:16;;;;;;;3.70;2.00;;;14.00;99.90;;;;;;5009129;28;20596;-73
2022/06/15 00:15:00;;;;;;;5.13;2.87;;;13.90;99.90;;;;;;5007102;28;20266;-72
2022/06/15 00:17:44;;;;;;;4.33;2.20;;;13.90;99.90;;;;;;5007913;28;20199;-74
2022/06/15 00:20:28;;;;;;;5.00;2.13;;;13.90;99.90;;;;;;5006045;28;20261;-74
2022/06/15 00:23:12;;;;;;;5.50;2.20;;;13.90;99.90;;;;;;5015695;28;20207;-73
2022/06/15 00:25:57;;;;;;;3.77;2.27;;;13.80;99.90;;;;;;5016599;28;20268;-74
2022/06/15 00:28:42;;;;;;;5.97;2.43;;;13.70;99.90;;;;;;5005560;28;20234;-74
2022/06/15 00:31:26;;;;;;;3.37;1.80;;;13.70;99.90;;;;;;5021666;28;20304;-74
2022/06/15 00:34:10;;;;;;;4.67;2.03;;;13.60;99.90;;;;;;5004306;28;20191;-72
2022/06/15 00:36:54;;;;;;;4.87;2.47;;;13.60;99.90;;;;;;5015401;28;20183;-74
2022/06/15 00:39:38;;;;;;;4.43;2.00;;;13.60;99.90;;;;;;5009328;28;20192;-74
2022/06/15 00:42:27;;;;;;;3.47;2.17;;;13.60;99.90;;;;;;5009784;28;20704;-75
2022/06/15 00:45:11;;;;;;;4.00;2.10;;;13.50;99.90;;;;;;5008644;28;20326;-74
2022/06/15 00:47:56;;;;;;;7.10;2.00;;;13.50;99.90;;;;;;5007831;28;20211;-72
2022/06/15 00:50:40;;;;;;;4.93;2.43;;;13.50;99.90;;;;;;5005556;28;20283;-74
2022/06/15 00:53:24;;;;;;;5.40;2.57;;;13.50;99.90;;;;;;5009478;28;20242;-73
2022/06/15 00:56:09;;;;;;;5.73;2.37;;;13.50;99.90;;;;;;5009206;28;20206;-72
2022/06/15 00:58:58;;;;;;;4.40;2.60;;;13.40;99.90;;;;;;5000742;28;20215;-73
2022/06/15 01:01:43;;;;;;;5.67;2.80;;;13.40;99.90;;;;;;5007054;28;20234;-75
2022/06/15 01:04:36;;;;;;;4.93;2.37;;;13.40;99.90;;;;;;5020455;28;20179;-74
2022/06/15 01:07:45;;;;;;;5.43;2.40;;;13.40;99.90;;;;;;4994628;28;20694;-76
2022/06/15 01:11:00;;;;;;;4.23;2.50;;;13.40;99.90;;;;;;5006715;28;20226;-74
2022/06/15 01:13:59;;;;;;;4.57;2.30;;;13.30;99.90;;;;;;5016241;28;20238;-73
2022/06/15 01:17:21;;;;;;;5.70;2.40;;;13.30;99.90;;;;;;5015175;28;20547;-74
2022/06/15 01:21:04;;;;;;;6.73;2.27;;;13.30;99.90;;;;;;5009720;28;20211;-74
2022/06/15 01:23:57;;;;;;;5.27;2.33;;;13.20;99.90;;;;;;5001068;28;20245;-74
2022/06/15 01:27:16;;;;;;;5.47;2.50;;;13.20;99.90;;;;;;5008994;28;20203;-73
2022/06/15 01:30:08;;;;;;;6.23;2.47;;;13.20;99.90;;;;;;4997207;28;20218;-74
2022/06/15 01:32:52;;;;;;;6.13;2.40;;;13.20;99.90;;;;;;5021234;28;20195;-73
2022/06/15 01:35:57;;;;;;;5.47;2.27;;;13.10;99.90;;;;;;5015833;28;20249;-74
2022/06/15 01:38:58;;;;;;;6.27;2.30;;;13.10;99.90;;;;;;5030041;28;20231;-73
2022/06/15 01:41:58;;;;;;;4.80;2.60;;;13.00;99.90;;;;;;5010938;28;20277;-74
2022/06/15 01:44:47;;;;;;;4.20;2.50;;;13.00;99.90;;;;;;5003171;28;20195;-74
2022/06/15 01:47:33;;;;;;;4.57;2.50;;;12.90;99.90;;;;;;5016475;28;20235;-74
2022/06/15 01:50:24;;;;;;;6.80;2.60;;;12.90;99.90;;;;;;5011265;28;20219;-74
2022/06/15 01:53:15;;;;;;;5.47;2.43;;;12.80;99.90;;;;;;5023324;28;20267;-74
2022/06/15 01:56:02;;;;;;;4.77;2.63;;;12.80;99.90;;;;;;5018730;28;20263;-73
2022/06/15 01:58:54;;;;;;;5.47;2.20;;;12.80;99.90;;;;;;5016016;28;20224;-76
2022/06/15 02:01:43;;;;;;;3.97;2.60;;;12.80;99.90;;;;;;5024078;28;20216;-73
2022/06/15 02:04:53;;;;;;;4.37;2.70;;;12.80;99.90;;;;;;5012930;28;20619;-73
2022/06/15 02:07:54;;;;;;;5.20;2.60;;;12.70;99.90;;;;;;5012132;28;20267;-74
2022/06/15 02:10:50;;;;;;;5.03;2.53;;;12.70;99.90;;;;;;5012846;28;20226;-74
2022/06/15 02:13:47;;;;;;;6.73;2.60;;;12.70;99.90;;;;;;5018523;28;20195;-74
2022/06/15 02:16:43;;;;;;;5.80;2.40;;;12.60;99.90;;;;;;5010032;28;20188;-73
2022/06/15 02:19:32;;;;;;;5.60;2.57;;;12.60;99.90;;;;;;5014649;28;20183;-74
2022/06/15 02:22:20;;;;;;;7.10;2.83;;;12.60;99.90;;;;;;5012466;28;20188;-73
2022/06/15 02:25:08;;;;;;;4.17;2.50;;;12.60;99.90;;;;;;5010770;28;20230;-73
2022/06/15 02:27:53;;;;;;;3.60;2.60;;;12.50;99.90;;;;;;5028604;28;20199;-73
2022/06/15 02:30:39;;;;;;;6.93;2.77;;;12.50;99.90;;;;;;5025660;28;20262;-72
2022/06/15 02:33:38;;;;;;;4.83;2.80;;;12.50;99.90;;;;;;5016231;28;20279;-74
2022/06/15 02:36:22;;;;;;;6.27;2.83;;;12.50;99.90;;;;;;5013840;28;20179;-74
2022/06/15 02:39:08;;;;;;;4.97;2.80;;;12.50;99.90;;;;;;5014262;28;20242;-74
2022/06/15 02:41:58;;;;;;;5.90;2.80;;;12.40;99.90;;;;;;5020483;28;20214;-74
2022/06/15 02:44:42;;;;;;;5.70;3.00;;;12.40;99.90;;;;;;5012263;28;20307;-74
2022/06/15 02:47:31;;;;;;;5.43;3.10;;;12.40;99.90;;;;;;5012731;28;20187;-74
2022/06/15 02:50:18;;;;;;;3.00;2.70;;;12.40;99.90;;;;;;5006164;28;20607;-74
2022/06/15 02:53:07;;;;;;;10.20;3.30;;;12.40;99.90;;;;;;5009472;28;20234;-74
2022/06/15 02:55:52;;;;;;;7.87;2.57;;;12.40;99.90;;;;;;5025737;28;20184;-74
2022/06/15 02:58:44;;;;;;;5.03;3.20;;;12.30;99.90;;;;;;5015203;28;20215;-74
2022/06/15 03:01:28;;;;;;;8.77;2.90;;;12.30;99.90;;;;;;5032247;28;20300;-74
2022/06/15 03:04:12;;;;;;;5.83;3.00;;;12.40;99.90;;;;;;5012347;28;20192;-74
2022/06/15 03:06:56;;;;;;;3.17;2.70;;;12.30;99.90;;;;;;5005595;28;20184;-73
2022/06/15 03:09:41;;;;;;;3.80;2.73;;;12.30;99.90;;;;;;5012355;28;20603;-74
2022/06/15 03:12:25;;;;;;;7.47;2.83;;;12.30;99.90;;;;;;5028810;28;20296;-74
2022/06/15 03:15:10;;;;;;;6.17;3.03;;;12.20;99.90;;;;;;5007462;28;20585;-72
2022/06/15 03:17:54;;;;;;;3.43;2.20;;;12.20;99.90;;;;;;5012751;28;20249;-74
2022/06/15 03:20:38;;;;;;;4.37;2.93;;;12.20;99.90;;;;;;5024042;28;20223;-77
2022/06/15 03:23:23;;;;;;;5.90;3.00;;;12.10;99.90;;;;;;5026453;28;20266;-78
2022/06/15 03:26:07;;;;;;;5.57;2.73;;;12.10;99.90;;;;;;5009859;28;20192;-74
2022/06/15 03:28:52;;;;;;;6.23;2.97;;;12.10;99.90;;;;;;5009326;28;20200;-74
2022/06/15 03:31:36;;;;;;;3.93;3.13;;;12.10;99.90;;;;;;5013872;28;20226;-73
2022/06/15 03:34:20;;;;;;;5.07;2.93;;;12.10;99.90;;;;;;5005743;28;20963;-73
2022/06/15 03:37:04;;;;;;;4.23;2.77;;;12.10;99.90;;;;;;5009395;28;20677;-73
2022/06/15 03:39:49;;;;;;;6.80;3.33;;;12.10;99.90;;;;;;5010133;28;20470;-74
2022/06/15 03:42:33;;;;;;;6.07;2.90;;;12.10;99.90;;;;;;5007455;28;20238;-75
2022/06/15 03:45:17;;;;;;;7.90;3.50;;;12.10;99.90;;;;;;5006673;28;20195;-74
2022/06/15 03:48:01;;;;;;;7.03;2.80;;;12.10;99.90;;;;;;5009156;28;20210;-74
2022/06/15 03:50:45;;;;;;;8.53;3.30;;;12.10;99.90;;;;;;4999302;28;20246;-74
2022/06/15 03:53:29;;;;;;;4.37;3.20;;;12.10;99.90;;;;;;5007197;28;20187;-73
2022/06/15 03:56:13;;;;;;;4.93;3.63;;;12.10;99.90;;;;;;5000705;28;20184;-75
2022/06/15 03:58:58;;;;;;;10.23;3.10;;;12.10;99.90;;;;;;5007334;28;20195;-73
2022/06/15 04:01:42;;;;;;;7.67;3.50;;;12.10;99.90;;;;;;5024712;28;20266;-73
2022/06/15 04:04:26;;;;;;;5.10;3.07;;;12.10;99.90;;;;;;5012179;28;20184;-74
2022/06/15 04:10:14;;;;;;;4.80;3.27;;;12.10;99.90;;;;;;5026108;28;20768;-74
2022/06/15 04:12:58;;;;;;;4.10;2.90;;;12.10;99.90;;;;;;5007857;28;20184;-75
2022/06/15 04:15:43;;;;;;;6.57;3.23;;;12.10;99.90;;;;;;5011600;28;20257;-74
2022/06/15 04:18:27;;;;;;;3.43;2.80;;;12.20;99.90;;;;;;5000076;28;20196;-74
2022/06/15 04:21:11;;;;;;;5.77;3.10;;;12.20;99.90;;;;;;5011823;28;20219;-74
2022/06/15 04:23:55;;;;;;;6.97;3.30;;;12.20;99.90;;;;;;5008361;28;20211;-73
2022/06/15 04:26:40;;;;;;;5.67;3.57;;;12.30;99.90;;;;;;5013884;28;20661;-74
2022/06/15 04:29:25;;;;;;;7.50;3.23;;;12.30;99.90;;;;;;5010486;28;20258;-74
2022/06/15 04:32:09;;;;;;;5.67;3.20;;;12.40;99.90;;;;;;5017686;28;20211;-73
2022/06/15 04:34:53;;;;;;;6.97;3.60;;;12.40;99.90;;;;;;5018758;28;20238;-73
2022/06/15 04:37:37;;;;;;;6.63;3.50;;;12.50;99.90;;;;;;5027070;28;20822;-74
2022/06/15 04:40:22;;;;;;;4.50;3.17;;;12.60;99.90;;;;;;5023467;28;20310;-72
2022/06/15 04:43:08;;;;;;;7.33;3.17;;;12.60;99.90;;;;;;5023982;28;20230;-74
2022/06/15 04:45:52;;;;;;;8.67;3.33;;;12.70;99.90;;;;;;5022482;28;20194;-75
2022/06/15 04:48:36;;;;;;;6.70;3.40;;;12.70;99.90;;;;;;5008124;28;20227;-75
2022/06/15 04:51:23;;;;;;;5.90;3.50;;;12.70;99.90;;;;;;5019559;28;20215;-76
2022/06/15 04:54:09;;;;;;;7.33;3.50;;;12.80;99.90;;;;;;5003595;28;20191;-74
2022/06/15 04:56:53;;;;;;;4.37;2.90;;;12.90;99.90;;;;;;5011890;28;20198;-74
2022/06/15 04:59:37;;;;;;;6.83;3.27;;;12.90;99.90;;;;;;5011645;28;20187;-74
2022/06/15 05:02:22;;;;;;;8.13;3.30;;;13.00;99.90;;;;;;5002268;28;20180;-72
2022/06/15 05:05:06;;;;;;;8.10;3.10;;;13.10;99.90;;;;;;5005845;28;20180;-74
2022/06/15 05:07:52;;;;;;;6.30;3.50;;;13.20;99.90;;;;;;5011780;28;20207;-72
2022/06/15 05:10:36;;;;;;;5.40;3.33;;;13.20;99.90;;;;;;5024834;28;20250;-73
2022/06/15 05:13:21;;;;;;;6.13;3.27;;;13.30;99.90;;;;;;5013485;28;20699;-74
2022/06/15 05:16:05;;;;;;;5.60;3.27;;;13.40;99.90;;;;;;5016026;28;20196;-74
2022/06/15 05:18:49;;;;;;;4.63;3.30;;;13.50;99.90;;;;;;5020480;28;20195;-75
2022/06/15 05:21:41;;;;;;;8.13;4.17;;;13.50;99.90;;;;;;5005195;28;20215;-73
2022/06/15 05:24:26;;;;;;;6.23;3.70;;;13.60;99.90;;;;;;5006563;28;20227;-74
2022/06/15 05:27:10;;;;;;;6.90;3.43;;;13.70;99.90;;;;;;5021967;28;20192;-75
2022/06/15 05:29:54;;;;;;;4.63;3.20;;;13.80;99.90;;;;;;5013880;28;20309;-72
2022/06/15 05:32:38;;;;;;;6.03;3.27;;;13.80;99.90;;;;;;5010515;28;20188;-76
2022/06/15 05:35:22;;;;;;;8.00;3.33;;;14.00;99.90;;;;;;5012490;28;20275;-73
2022/06/15 05:38:06;;;;;;;7.83;3.43;;;14.00;99.90;;;;;;5012249;28;20200;-72
2022/06/15 05:40:50;;;;;;;5.90;3.47;;;14.10;99.90;;;;;;5011426;28;20231;-72
2022/06/15 05:43:36;;;;;;;7.83;3.63;;;14.10;99.90;;;;;;5010415;28;20706;-76
2022/06/15 05:46:32;;;;;;;5.20;3.40;;;14.20;99.90;;;;;;5011096;28;20191;-73
2022/06/15 05:49:16;;;;;;;8.23;3.17;;;14.30;99.90;;;;;;5010904;28;20291;-74
2022/06/15 05:52:02;;;;;;;6.73;3.60;;;14.40;99.90;;;;;;5030520;28;20272;-74
2022/06/15 05:54:46;;;;;;;4.20;2.90;;;14.50;99.90;;;;;;5014916;28;20183;-73
2022/06/15 05:57:30;;;;;;;7.90;2.97;;;14.60;99.90;;;;;;5010446;28;20703;-74
2022/06/15 06:00:15;;;;;;;8.90;2.90;;;14.70;99.90;;;;;;5028175;28;20289;-74
2022/06/15 06:03:00;;;;;;;5.67;3.10;;;14.80;99.90;;;;;;5014163;28;20626;-75
2022/06/15 06:05:44;;;;;;;7.07;3.47;;;14.90;99.90;;;;;;5013942;28;20578;-73
2022/06/15 06:08:28;;;;;;;7.60;3.20;;;15.00;99.90;;;;;;5011691;28;20218;-74
2022/06/15 06:11:13;;;;;;;6.00;3.10;;;15.10;99.90;;;;;;5010637;28;20262;-74
2022/06/15 06:13:57;;;;;;;6.13;2.53;;;15.20;99.90;;;;;;5013585;28;20199;-73
2022/06/15 06:16:41;;;;;;;4.33;2.70;;;15.30;99.90;;;;;;5010223;28;20267;-74
2022/06/15 06:19:25;;;;;;;7.33;2.70;;;15.50;99.90;;;;;;5030895;28;20315;-75
2022/06/15 06:22:09;;;;;;;4.63;2.63;;;15.60;99.90;;;;;;5004297;28;20203;-73
2022/06/15 06:24:53;;;;;;;8.07;2.57;;;15.60;99.90;;;;;;5026571;28;20272;-73
2022/06/15 06:27:38;;;;;;;7.37;2.53;;;15.70;99.90;;;;;;5016212;28;20275;-74
2022/06/15 06:30:22;;;;;;;5.40;2.77;;;15.80;99.90;;;;;;5007515;28;20218;-74
2022/06/15 06:33:06;;;;;;;7.67;2.80;;;15.90;99.90;;;;;;5003632;28;20247;-75
2022/06/15 06:35:50;;;;;;;4.70;2.37;;;16.00;99.90;;;;;;5007460;28;20258;-74
2022/06/15 06:38:35;;;;;;;4.33;1.90;;;16.10;99.90;;;;;;5025926;28;20238;-75
2022/06/15 06:41:21;;;;;;;5.37;2.43;;;16.20;99.90;;;;;;5019977;28;20219;-75
2022/06/15 06:44:06;;;;;;;5.13;2.40;;;16.30;99.90;;;;;;4998284;28;20203;-74
2022/06/15 06:46:52;;;;;;;5.60;2.50;;;16.30;99.90;;;;;;5019993;28;20730;-75
2022/06/15 06:49:37;;;;;;;6.43;2.53;;;16.40;99.90;;;;;;5016076;28;20226;-74
2022/06/15 06:52:21;;;;;;;3.77;2.30;;;16.40;99.90;;;;;;5018255;28;20187;-76
2022/06/15 06:55:05;;;;;;;9.27;2.40;;;16.60;99.90;;;;;;5011704;28;20215;-76
2022/06/15 06:57:57;;;;;;;6.90;2.30;;;16.60;99.90;;;;;;5024224;28;20264;-74
2022/06/15 07:00:41;;;;;;;4.67;2.30;;;16.70;99.90;;;;;;5025152;28;20227;-74
2022/06/15 07:03:25;;;;;;;6.90;2.40;;;16.70;99.90;;;;;;5009245;28;20678;-74
2022/06/15 07:06:10;;;;;;;4.83;2.33;;;16.90;99.90;;;;;;5010514;28;20203;-75
2022/06/15 07:08:56;;;;;;;6.17;2.30;;;17.00;99.90;;;;;;5010442;28;20192;-75
2022/06/15 07:11:43;;;;;;;6.83;2.53;;;17.10;99.90;;;;;;5009172;28;20255;-75
2022/06/15 07:14:29;;;;;;;6.47;2.13;;;17.20;99.90;;;;;;5011583;28;20250;-74
2022/06/15 07:17:13;;;;;;;3.73;2.13;;;17.30;99.90;;;;;;5020552;28;20211;-74
2022/06/15 07:19:57;;;;;;;3.87;1.80;;;17.40;99.90;;;;;;5004223;28;20296;-74
2022/06/15 07:22:41;;;;;;;6.03;2.10;;;17.40;99.90;;;;;;5014303;28;20190;-75
2022/06/15 07:25:25;;;;;;;3.00;1.60;;;17.50;99.90;;;;;;5012572;28;20190;-74
2022/06/15 07:28:09;;;;;;;5.40;1.60;;;17.60;99.90;;;;;;5032237;28;20575;-75
2022/06/15 07:30:53;;;;;;;5.80;1.50;;;17.70;99.90;;;;;;5036617;28;20242;-75
2022/06/15 07:33:38;;;;;;;4.00;1.50;;;17.80;99.90;;;;;;5009665;28;20230;-73
2022/06/15 07:36:23;;;;;;;3.10;1.50;;;17.80;99.90;;;;;;5028213;28;20194;-75
2022/06/15 07:39:07;;;;;;;3.17;1.80;;;17.80;99.90;;;;;;5015173;28;20184;-75
2022/06/15 07:41:52;;;;;;;4.70;1.30;;;17.90;99.90;;;;;;5008138;28;20219;-75
2022/06/15 07:44:38;;;;;;;4.33;1.53;;;18.00;99.90;;;;;;5011187;28;20238;-75
2022/06/15 07:50:25;;;;;;;4.57;1.90;;;18.30;99.90;;;;;;5027899;28;20268;-75
2022/06/15 07:53:12;;;;;;;2.67;1.40;;;18.30;99.90;;;;;;5006166;28;20199;-75
2022/06/15 07:55:57;;;;;;;5.07;1.60;;;18.30;99.90;;;;;;5005873;28;20283;-73
2022/06/15 07:58:41;;;;;;;7.63;1.67;;;18.30;99.90;;;;;;5027531;28;20191;-75
2022/06/15 08:01:25;;;;;;;5.57;1.57;;;18.30;99.90;;;;;;5007050;28;20263;-75
2022/06/15 08:04:13;;;;;;;2.23;1.40;;;18.30;99.90;;;;;;5013478;28;20206;-75
2022/06/15 08:06:57;;;;;;;3.07;1.50;;;18.30;99.90;;;;;;5009968;28;20310;-74
2022/06/15 08:09:42;;;;;;;5.90;1.30;;;18.40;99.90;;;;;;5023002;28;20218;-75
2022/06/15 08:12:27;;;;;;;2.97;1.50;;;18.50;99.90;;;;;;5016638;28;20650;-76
2022/06/15 08:15:13;;;;;;;4.30;1.53;;;18.60;99.90;;;;;;5013344;28;20199;-73
2022/06/15 08:18:03;;;;;;;3.20;1.30;;;18.60;99.90;;;;;;5011264;28;20219;-75
2022/06/15 08:21:01;;;;;;;6.37;1.70;;;18.70;99.90;;;;;;5004654;28;20215;-76
2022/06/15 08:23:49;;;;;;;4.23;1.60;;;18.70;99.90;;;;;;5003663;28;20199;-76
2022/06/15 08:26:37;;;;;;;2.37;1.40;;;18.70;99.90;;;;;;5024589;28;20178;-75
2022/06/15 08:29:21;;;;;;;3.37;1.40;;;18.70;99.90;;;;;;5021583;28;20239;-76
2022/06/15 08:32:06;;;;;;;3.97;1.30;;;18.80;99.90;;;;;;5012120;28;20198;-76
2022/06/15 08:34:51;;;;;;;7.43;1.63;;;18.80;99.90;;;;;;5000586;28;20235;-75
2022/06/15 08:37:35;;;;;;;4.27;1.70;;;18.80;99.90;;;;;;5010265;28;20215;-75
2022/06/15 08:40:20;;;;;;;4.30;1.57;;;18.90;99.90;;;;;;5007384;28;20245;-75
2022/06/15 08:43:21;;;;;;;5.03;1.80;;;18.90;99.90;;;;;;5007006;28;20238;-76
2022/06/15 08:46:40;;;;;;;5.43;1.43;;;19.00;99.90;;;;;;5011999;28;20191;-76
2022/06/15 08:49:33;;;;;;;4.78;1.70;;;19.20;99.90;;;;;;4997962;28;20295;-77
2022/06/15 08:52:22;;;;;;;2.37;1.27;;;19.30;99.90;;;;;;5024682;28;20251;-76
2022/06/15 08:55:13;;;;;;;5.53;1.40;;;19.40;99.90;;;;;;5014105;28;20212;-76
2022/06/15 08:58:10;;;;;;;4.18;1.27;;;19.40;99.90;;;;;;5014287;28;20671;-77
2022/06/15 09:01:01;;;;;;;4.13;1.50;;;19.40;99.90;;;;;;5008886;28;20207;-77
2022/06/15 09:04:13;;;;;;;4.13;1.30;;;19.40;99.90;;;;;;5013499;28;20249;-76
2022/06/15 09:07:15;;;;;;;5.47;1.60;;;19.40;99.90;;;;;;5025200;28;20349;-78
2022/06/15 09:10:06;;;;;;;3.80;1.50;;;19.40;99.90;;;;;;5029834;28;20235;-77
2022/06/15 09:13:24;;;;;;;7.65;1.50;;;19.50;99.90;;;;;;5022571;28;20219;-78
2022/06/15 09:16:33;;;;;;;4.50;1.65;;;19.60;99.90;;;;;;5005348;28;20603;-76
2022/06/15 09:19:51;;;;;;;4.68;1.50;;;19.70;99.90;;;;;;5017971;28;20376;-76
2022/06/15 09:22:41;;;;;;;3.72;1.52;;;19.80;99.90;;;;;;5004493;28;20234;-74
2022/06/15 09:25:35;;;;;;;7.15;1.60;;;19.80;99.90;;;;;;5016745;28;20175;-75
2022/06/15 09:28:26;;;;;;;3.13;1.42;;;19.80;99.90;;;;;;5013695;28;20228;-75
2022/06/15 09:31:21;;;;;;;6.05;1.45;;;19.90;99.90;;;;;;5015100;28;20633;-74
2022/06/15 09:34:06;;;;;;;6.78;1.65;;;19.90;99.90;;;;;;5011928;28;20187;-75
2022/06/15 09:36:55;;;;;;;4.00;1.67;;;19.90;99.90;;;;;;5008059;28;20267;-74
2022/06/15 09:39:40;;;;;;;6.40;1.70;;;19.90;99.90;;;;;;5007438;28;20525;-75
2022/06/15 09:42:39;;;;;;;4.25;1.70;;;19.90;99.90;;;;;;5009536;28;20199;-75
2022/06/15 09:45:35;;;;;;;3.28;1.42;;;20.00;99.90;;;;;;5012602;28;20228;-76
2022/06/15 09:48:40;;;;;;;3.63;1.58;;;20.20;99.90;;;;;;5017289;28;20184;-76
2022/06/15 09:51:37;;;;;;;3.50;1.50;;;20.30;99.90;;;;;;5023850;28;20237;-77
2022/06/15 09:54:42;;;;;;;4.10;1.83;;;20.30;99.90;;;;;;5022450;28;20226;-76
2022/06/15 09:57:26;;;;;;;6.53;2.15;;;20.30;99.90;;;;;;5016213;28;20321;-76
2022/06/15 10:00:14;;;;;;;3.63;1.45;;;20.30;99.90;;;;;;5025078;28;20223;-76
2022/06/15 10:03:03;;;;;;;3.90;1.63;;;20.30;99.90;;;;;;5024262;28;20604;-77
2022/06/15 10:05:51;;;;;;;5.75;1.70;;;20.30;99.90;;;;;;5006165;28;20249;-76
2022/06/15 10:08:35;;;;;;;4.72;1.70;;;20.30;99.90;;;;;;5018246;28;20188;-77
2022/06/15 10:11:45;;;;;;;3.00;1.77;;;20.30;99.90;;;;;;5010276;28;20672;-76
2022/06/15 10:14:34;;;;;;;5.05;1.70;;;20.40;99.90;;;;;;5017476;28;20262;-75
2022/06/15 10:17:24;;;;;;;3.60;1.27;;;20.50;99.90;;;;;;5013688;28;20195;-77
2022/06/15 10:20:41;;;;;;;6.43;1.67;;;20.60;99.90;;;;;;5015275;28;20238;-75
2022/06/15 10:23:46;;;;;;;3.88;1.70;;;20.80;99.90;;;;;;5020099;28;20574;-76
2022/06/15 10:26:49;;;;;;;7.20;2.08;;;20.80;99.90;;;;;;5016397;28;20195;-77
2022/06/15 10:29:34;;;;;;;5.53;1.90;;;20.80;99.90;;;;;;5017855;28;20246;-77
2022/06/15 10:32:21;;;;;;;4.65;1.67;;;20.90;99.90;;;;;;5015355;28;20210;-78
2022/06/15 10:35:16;;;;;;;3.58;1.77;;;21.00;99.90;;;;;;5018550;28;20186;-76
2022/06/15 10:38:08;;;;;;;3.85;1.50;;;21.00;99.90;;;;;;5008486;28;20386;-77
2022/06/15 10:44:18;;;;;;;5.05;1.80;;;21.00;99.90;;;;;;5002885;28;20233;-76
2022/06/15 10:47:39;;;;;;;2.28;1.40;;;21.00;99.90;;;;;;5017520;28;20650;-74
2022/06/15 10:50:28;;;;;;;3.60;2.00;;;21.10;99.90;;;;;;5018088;28;20230;-77
2022/06/15 10:53:34;;;;;;;6.32;1.85;;;21.10;99.90;;;;;;5014581;28;20218;-78
2022/06/15 11:02:44;;;;;;;3.88;1.77;;;21.30;99.90;;;;;;5027688;28;20606;-75
2022/06/15 11:05:32;;;;;;;5.25;1.83;;;21.20;99.90;;;;;;5012379;28;20215;-76
2022/06/15 11:08:20;;;;;;;8.40;1.67;;;21.30;99.90;;;;;;5012380;28;20683;-76
2022/06/15 11:11:10;;;;;;;3.88;1.70;;;21.20;99.90;;;;;;5022705;28;20223;-76
2022/06/15 11:14:06;;;;;;;3.58;2.03;;;21.30;99.90;;;;;;4998038;28;20191;-76
2022/06/15 11:19:56;;;;;;;5.22;2.17;;;21.40;99.90;;;;;;5014656;28;20265;-78
2022/06/15 11:22:40;;;;;;;5.68;1.75;;;21.60;99.90;;;;;;4998101;28;20372;-76
2022/06/15 11:25:45;;;;;;;3.85;1.60;;;21.60;99.90;;;;;;5000800;28;20223;-76
2022/06/15 11:28:36;;;;;;;5.38;1.70;;;21.60;99.90;;;;;;4999817;28;20223;-76
2022/06/15 11:31:25;;;;;;;6.18;1.70;;;21.80;99.90;;;;;;4996217;28;20242;-78
2022/06/15 11:34:18;;;;;;;7.53;2.03;;;21.80;99.90;;;;;;5017106;28;20521;-75
2022/06/15 11:37:10;;;;;;;3.85;1.80;;;21.90;99.90;;;;;;4999718;28;20283;-77
2022/06/15 11:40:07;;;;;;;6.60;1.80;;;21.90;99.90;;;;;;4998543;28;20223;-76
2022/06/15 11:42:51;;;;;;;2.90;1.70;;;21.80;99.90;;;;;;5001411;28;20231;-77
2022/06/15 11:45:51;;;;;;;5.22;1.80;;;21.80;99.90;;;;;;4998871;28;20272;-75
2022/06/15 11:49:04;;;;;;;4.78;1.80;;;21.80;99.90;;;;;;5014350;28;20203;-78
2022/06/15 11:52:17;;;;;;;3.28;1.52;;;21.80;99.90;;;;;;4996070;28;20641;-76
2022/06/15 11:55:23;;;;;;;4.88;1.88;;;21.80;99.90;;;;;;5014645;28;20659;-76
2022/06/15 11:58:29;;;;;;;8.75;1.98;;;22.00;99.90;;;;;;4997942;28;20234;-77
2022/06/15 12:01:43;;;;;;;5.30;1.90;;;22.10;99.90;;;;;;5022584;28;20350;-76
2022/06/15 12:04:50;;;;;;;2.80;1.60;;;22.10;99.90;;;;;;5009337;28;20218;-78
2022/06/15 12:07:49;;;;;;;5.85;1.80;;;22.20;99.90;;;;;;5007771;28;20222;-78
2022/06/15 12:12:37;;;;;;;2.75;1.40;;;22.10;99.90;;;;;;5007136;28;20297;-76
2022/06/15 12:14:35;;;;;;;4.78;1.65;;;22.10;99.90;;;;;;5021969;28;20214;-75
2022/06/15 12:17:45;;;;;;;2.70;1.50;;;22.30;99.90;;;;;;5018635;28;20211;-76
2022/06/15 12:20:44;;;;;;;5.88;1.42;;;22.50;99.90;;;;;;5017613;28;20265;-75
2022/06/15 12:24:08;;;;;;;3.38;1.75;;;22.60;99.90;;;;;;5010827;28;20242;-77
2022/06/15 12:27:04;;;;;;;5.85;1.80;;;22.70;99.90;;;;;;5002803;28;20198;-76
2022/06/15 12:29:56;;;;;;;1.65;1.38;;;22.70;99.90;;;;;;5008603;28;20231;-78
2022/06/15 12:32:59;;;;;;;3.38;1.70;;;22.70;99.90;;;;;;5003908;28;20196;-77
2022/06/15 12:36:01;;;;;;;5.10;1.63;;;22.70;99.90;;;;;;5016602;28;20199;-75
2022/06/15 12:39:01;;;;;;;3.45;1.52;;;22.60;99.90;;;;;;5006039;28;20206;-75
2022/06/15 12:44:54;;;;;;;4.05;1.23;;;22.70;99.90;;;;;;5024347;28;20257;-77
2022/06/15 12:47:40;;;;;;;5.93;1.60;;;22.60;99.90;;;;;;5011816;28;20277;-76
2022/06/15 12:51:10;;;;;;;2.85;1.73;;;22.60;99.90;;;;;;5009473;28;20231;-77
2022/06/15 12:53:54;;;;;;;5.63;1.63;;;22.70;99.90;;;;;;4991414;28;20232;-76
2022/06/15 12:57:06;;;;;;;3.03;1.60;;;22.70;99.90;;;;;;4995390;28;20322;-76
2022/06/15 13:00:03;;;;;;;2.05;1.05;;;22.70;99.90;;;;;;5007394;28;20751;-76
2022/06/15 13:03:01;;;;;;;5.82;1.63;;;22.80;99.90;;;;;;5010872;28;20183;-76
2022/06/15 13:05:45;;;;;;;3.90;1.65;;;23.00;99.90;;;;;;5008688;28;20190;-75
2022/06/15 13:08:33;;;;;;;4.88;1.77;;;23.10;99.90;;;;;;5023274;28;20203;-77
2022/06/15 13:11:18;;;;;;;4.97;1.67;;;23.20;99.90;;;;;;5014294;28;20253;-77
2022/06/15 13:14:16;;;;;;;3.30;1.63;;;23.20;99.90;;;;;;5004563;28;20195;-78
2022/06/15 13:17:16;;;;;;;4.85;2.05;;;23.30;99.90;;;;;;5020565;28;20550;-77
2022/06/15 13:20:06;;;;;;;4.93;2.05;;;23.40;99.90;;;;;;5025857;28;20362;-77
2022/06/15 13:22:51;;;;;;;5.18;1.67;;;23.40;99.90;;;;;;5011422;28;20214;-76
2022/06/15 13:25:53;;;;;;;2.25;1.75;;;23.50;99.90;;;;;;5002182;28;20191;-77
2022/06/15 13:29:03;;;;;;;3.55;1.77;;;23.50;99.90;;;;;;5002088;28;20195;-76
2022/06/15 13:32:13;;;;;;;6.43;1.73;;;23.40;99.90;;;;;;5022388;28;20270;-76
2022/06/15 13:35:18;;;;;;;6.07;1.70;;;23.40;99.90;;;;;;5008216;28;20199;-77
2022/06/15 13:38:27;;;;;;;3.42;1.80;;;23.40;99.90;;;;;;5007234;28;20588;-77
2022/06/15 13:41:16;;;;;;;2.42;1.45;;;23.40;99.90;;;;;;5009706;28;20227;-75
2022/06/15 13:44:02;;;;;;;6.43;2.00;;;23.50;99.90;;;;;;5008344;28;20195;-77
2022/06/15 13:46:52;;;;;;;4.38;1.70;;;23.50;99.90;;;;;;5011932;28;20196;-76
2022/06/15 13:49:40;;;;;;;4.75;1.58;;;23.50;99.90;;;;;;5029410;28;20231;-76
2022/06/15 13:52:30;;;;;;;5.20;1.77;;;23.60;99.90;;;;;;5011000;28;20289;-76
2022/06/15 13:55:25;;;;;;;4.80;1.50;;;23.70;99.90;;;;;;5019421;28;20206;-74
2022/06/15 13:58:40;;;;;;;7.90;1.98;;;23.80;99.90;;;;;;5015935;28;20255;-75
2022/06/15 14:01:33;;;;;;;4.25;1.58;;;23.90;99.90;;;;;;5029212;28;20211;-76
2022/06/15 14:04:33;;;;;;;5.07;2.10;;;23.90;99.90;;;;;;5028753;28;20242;-76
2022/06/15 14:07:38;;;;;;;6.93;2.05;;;24.00;99.90;;;;;;5033858;28;20227;-75
2022/06/15 14:10:43;;;;;;;3.83;1.40;;;24.10;99.90;;;;;;5030115;28;20225;-75
2022/06/15 14:13:45;;;;;;;4.25;1.60;;;24.10;99.90;;;;;;5026353;28;20191;-75
2022/06/15 14:17:00;;;;;;;5.18;1.75;;;24.10;99.90;;;;;;5018550;28;20654;-75
2022/06/15 14:19:50;;;;;;;6.13;1.60;;;24.10;99.90;;;;;;5018869;28;20263;-76
2022/06/15 14:22:52;;;;;;;4.38;1.70;;;24.10;99.90;;;;;;5014349;28;20572;-75
2022/06/15 14:25:41;;;;;;;4.97;2.13;;;24.10;99.90;;;;;;5011784;28;20297;-76
2022/06/15 14:28:28;;;;;;;2.90;1.80;;;24.10;99.90;;;;;;5017598;28;20257;-75
2022/06/15 14:31:19;;;;;;;3.60;1.80;;;24.10;99.90;;;;;;5015938;28;20254;-78
2022/06/15 14:34:25;;;;;;;4.43;1.80;;;24.10;99.90;;;;;;5025402;28;20191;-76
2022/06/15 14:37:20;;;;;;;6.47;1.90;;;24.10;99.90;;;;;;5025460;28;20653;-76
2022/06/15 14:40:05;;;;;;;5.68;2.10;;;24.10;99.90;;;;;;5016083;28;20219;-75
2022/06/15 14:42:57;;;;;;;4.18;1.90;;;24.20;99.90;;;;;;5008574;28;20264;-77
2022/06/15 14:45:53;;;;;;;5.47;2.47;;;24.20;99.90;;;;;;5011767;28;20195;-75
2022/06/15 14:48:38;;;;;;;10.10;1.92;;;24.20;99.90;;;;;;5020002;28;20215;-76
2022/06/15 14:51:28;;;;;;;4.90;1.73;;;24.20;99.90;;;;;;5018948;28;20247;-75
2022/06/15 14:54:16;;;;;;;6.15;1.50;;;24.30;99.90;;;;;;5004381;28;20227;-76
2022/06/15 14:57:00;;;;;;;5.07;1.55;;;24.30;99.90;;;;;;4998842;28;20195;-75
2022/06/15 14:59:48;;;;;;;9.63;2.45;;;24.40;99.90;;;;;;5009107;28;20559;-75
2022/06/15 15:02:52;;;;;;;3.03;1.65;;;24.50;99.90;;;;;;5009181;28;20200;-76
2022/06/15 15:05:41;;;;;;;3.53;1.50;;;24.50;99.90;;;;;;5004285;28;20667;-76
2022/06/15 15:08:29;;;;;;;11.13;1.67;;;24.60;99.90;;;;;;5013430;28;20227;-76
2022/06/15 15:11:38;;;;;;;5.15;1.75;;;24.60;99.90;;;;;;5011412;28;20247;-74